sensor_id;sensor_type;location;lat;lon;timestamp;P1;durP1;ratioP1;P2;durP2;ratioP2
13609;SDS011;6876;50.788;4.940;2023-08-07T00:01:17;13.53;;;4.60;;
13609;SDS011;6876;50.788;4.940;2023-08-07T00:04:04;12.00;;;4.93;;
13609;SDS011;6876;50.788;4.940;2023-08-07T00:06:52;12.03;;;4.60;;
13609;SDS011;6876;50.788;4.940;2023-08-07T00:09:39;9.37;;;4.50;;
13609;SDS011;6876;50.788;4.940;2023-08-07T00:12:26;11.20;;;4.90;;
13609;SDS011;6876;50.788;4.940;2023-08-07T00:15:14;12.30;;;5.77;;
13609;SDS011;6876;50.788;4.940;2023-08-07T00:18:03;8.77;;;5.60;;
13609;SDS011;6876;50.788;4.940;2023-08-07T00:20:51;8.83;;;4.90;;
13609;SDS011;6876;50.788;4.940;2023-08-07T00:23:38;11.10;;;4.63;;
13609;SDS011;6876;50.788;4.940;2023-08-07T00:26:26;8.00;;;4.20;;
13609;SDS011;6876;50.788;4.940;2023-08-07T00:29:13;10.00;;;4.37;;
13609;SDS011;6876;50.788;4.940;2023-08-07T00:32:00;8.63;;;4.80;;
13609;SDS011;6876;50.788;4.940;2023-08-07T00:34:49;10.20;;;5.03;;
13609;SDS011;6876;50.788;4.940;2023-08-07T00:37:36;11.67;;;5.33;;
13609;SDS011;6876;50.788;4.940;2023-08-07T00:40:24;10.40;;;5.73;;
13609;SDS011;6876;50.788;4.940;2023-08-07T00:43:11;7.60;;;4.67;;
13609;SDS011;6876;50.788;4.940;2023-08-07T00:45:58;7.93;;;4.53;;
13609;SDS011;6876;50.788;4.940;2023-08-07T00:48:46;8.37;;;4.60;;
13609;SDS011;6876;50.788;4.940;2023-08-07T00:51:34;8.70;;;4.73;;
13609;SDS011;6876;50.788;4.940;2023-08-07T00:54:22;8.73;;;4.87;;
13609;SDS011;6876;50.788;4.940;2023-08-07T00:57:11;7.47;;;5.17;;
13609;SDS011;6876;50.788;4.940;2023-08-07T01:00:00;10.20;;;5.37;;
13609;SDS011;6876;50.788;4.940;2023-08-07T01:02:49;9.77;;;5.50;;
13609;SDS011;6876;50.788;4.940;2023-08-07T01:05:37;11.70;;;4.90;;
13609;SDS011;6876;50.788;4.940;2023-08-07T01:08:26;11.00;;;4.80;;
13609;SDS011;6876;50.788;4.940;2023-08-07T01:11:18;11.90;;;4.43;;
13609;SDS011;6876;50.788;4.940;2023-08-07T01:14:10;7.97;;;4.20;;
13609;SDS011;6876;50.788;4.940;2023-08-07T01:17:06;8.77;;;3.40;;
13609;SDS011;6876;50.788;4.940;2023-08-07T01:19:56;7.27;;;3.53;;
13609;SDS011;6876;50.788;4.940;2023-08-07T01:22:45;6.80;;;3.30;;
13609;SDS011;6876;50.788;4.940;2023-08-07T01:25:34;6.30;;;4.60;;
13609;SDS011;6876;50.788;4.940;2023-08-07T01:28:25;10.57;;;3.50;;
13609;SDS011;6876;50.788;4.940;2023-08-07T01:31:18;7.37;;;3.30;;
13609;SDS011;6876;50.788;4.940;2023-08-07T01:34:08;8.60;;;3.57;;
13609;SDS011;6876;50.788;4.940;2023-08-07T01:36:59;7.03;;;4.27;;
13609;SDS011;6876;50.788;4.940;2023-08-07T01:39:49;8.90;;;4.03;;
13609;SDS011;6876;50.788;4.940;2023-08-07T01:42:38;7.13;;;4.00;;
13609;SDS011;6876;50.788;4.940;2023-08-07T01:45:26;7.00;;;4.37;;
13609;SDS011;6876;50.788;4.940;2023-08-07T01:48:14;9.57;;;4.00;;
13609;SDS011;6876;50.788;4.940;2023-08-07T01:51:02;8.97;;;3.70;;
13609;SDS011;6876;50.788;4.940;2023-08-07T01:53:49;8.73;;;4.03;;
13609;SDS011;6876;50.788;4.940;2023-08-07T01:56:39;7.57;;;4.10;;
13609;SDS011;6876;50.788;4.940;2023-08-07T01:59:26;7.73;;;4.00;;
13609;SDS011;6876;50.788;4.940;2023-08-07T02:02:14;5.40;;;2.87;;
13609;SDS011;6876;50.788;4.940;2023-08-07T02:05:01;6.20;;;2.70;;
13609;SDS011;6876;50.788;4.940;2023-08-07T02:07:49;11.33;;;4.37;;
13609;SDS011;6876;50.788;4.940;2023-08-07T02:10:36;7.90;;;3.50;;
13609;SDS011;6876;50.788;4.940;2023-08-07T02:13:25;5.30;;;3.50;;
13609;SDS011;6876;50.788;4.940;2023-08-07T02:16:12;7.23;;;2.73;;
13609;SDS011;6876;50.788;4.940;2023-08-07T02:18:59;6.73;;;4.00;;
13609;SDS011;6876;50.788;4.940;2023-08-07T02:21:47;8.00;;;3.60;;
13609;SDS011;6876;50.788;4.940;2023-08-07T02:24:34;7.93;;;2.90;;
13609;SDS011;6876;50.788;4.940;2023-08-07T02:27:21;7.67;;;3.47;;
13609;SDS011;6876;50.788;4.940;2023-08-07T02:30:10;5.87;;;3.60;;
13609;SDS011;6876;50.788;4.940;2023-08-07T02:32:58;7.17;;;3.93;;
13609;SDS011;6876;50.788;4.940;2023-08-07T02:35:45;7.07;;;3.87;;
13609;SDS011;6876;50.788;4.940;2023-08-07T02:38:33;5.10;;;3.40;;
13609;SDS011;6876;50.788;4.940;2023-08-07T02:41:20;6.93;;;3.63;;
13609;SDS011;6876;50.788;4.940;2023-08-07T02:44:07;7.67;;;3.53;;
13609;SDS011;6876;50.788;4.940;2023-08-07T02:46:56;8.90;;;3.87;;
13609;SDS011;6876;50.788;4.940;2023-08-07T02:49:43;8.47;;;3.70;;
13609;SDS011;6876;50.788;4.940;2023-08-07T02:52:31;8.37;;;3.77;;
13609;SDS011;6876;50.788;4.940;2023-08-07T02:55:18;8.57;;;3.97;;
13609;SDS011;6876;50.788;4.940;2023-08-07T02:58:05;7.07;;;3.60;;
13609;SDS011;6876;50.788;4.940;2023-08-07T03:00:53;7.93;;;3.63;;
13609;SDS011;6876;50.788;4.940;2023-08-07T03:03:42;6.70;;;4.03;;
13609;SDS011;6876;50.788;4.940;2023-08-07T03:06:29;7.33;;;3.63;;
13609;SDS011;6876;50.788;4.940;2023-08-07T03:09:16;7.50;;;2.47;;
13609;SDS011;6876;50.788;4.940;2023-08-07T03:12:04;6.53;;;3.60;;
13609;SDS011;6876;50.788;4.940;2023-08-07T03:14:52;6.30;;;3.47;;
13609;SDS011;6876;50.788;4.940;2023-08-07T03:17:39;6.53;;;3.40;;
13609;SDS011;6876;50.788;4.940;2023-08-07T03:20:28;6.40;;;3.20;;
13609;SDS011;6876;50.788;4.940;2023-08-07T03:23:15;11.07;;;3.20;;
13609;SDS011;6876;50.788;4.940;2023-08-07T03:26:03;10.77;;;2.97;;
13609;SDS011;6876;50.788;4.940;2023-08-07T03:28:51;8.83;;;2.97;;
13609;SDS011;6876;50.788;4.940;2023-08-07T03:31:38;4.77;;;2.93;;
13609;SDS011;6876;50.788;4.940;2023-08-07T03:34:26;5.60;;;2.83;;
13609;SDS011;6876;50.788;4.940;2023-08-07T03:37:14;5.97;;;3.20;;
13609;SDS011;6876;50.788;4.940;2023-08-07T03:40:02;7.30;;;3.20;;
13609;SDS011;6876;50.788;4.940;2023-08-07T03:42:50;9.13;;;3.20;;
13609;SDS011;6876;50.788;4.940;2023-08-07T03:45:37;4.60;;;2.83;;
13609;SDS011;6876;50.788;4.940;2023-08-07T03:48:25;5.07;;;2.97;;
13609;SDS011;6876;50.788;4.940;2023-08-07T03:51:13;9.63;;;3.37;;
13609;SDS011;6876;50.788;4.940;2023-08-07T03:54:03;6.40;;;3.43;;
13609;SDS011;6876;50.788;4.940;2023-08-07T03:56:50;7.80;;;3.23;;
13609;SDS011;6876;50.788;4.940;2023-08-07T03:59:38;5.60;;;3.50;;
13609;SDS011;6876;50.788;4.940;2023-08-07T04:02:25;9.57;;;3.43;;
13609;SDS011;6876;50.788;4.940;2023-08-07T04:05:14;5.97;;;3.53;;
13609;SDS011;6876;50.788;4.940;2023-08-07T04:08:01;7.47;;;3.10;;
13609;SDS011;6876;50.788;4.940;2023-08-07T04:10:58;6.10;;;3.30;;
13609;SDS011;6876;50.788;4.940;2023-08-07T04:13:46;4.53;;;3.27;;
13609;SDS011;6876;50.788;4.940;2023-08-07T04:16:33;6.83;;;3.00;;
13609;SDS011;6876;50.788;4.940;2023-08-07T04:19:22;6.73;;;2.40;;
13609;SDS011;6876;50.788;4.940;2023-08-07T04:22:09;5.53;;;3.00;;
13609;SDS011;6876;50.788;4.940;2023-08-07T04:24:57;7.10;;;3.20;;
13609;SDS011;6876;50.788;4.940;2023-08-07T04:27:46;8.73;;;3.17;;
13609;SDS011;6876;50.788;4.940;2023-08-07T04:30:34;7.40;;;3.10;;
13609;SDS011;6876;50.788;4.940;2023-08-07T04:33:21;5.57;;;3.17;;
13609;SDS011;6876;50.788;4.940;2023-08-07T04:36:08;9.93;;;2.97;;
13609;SDS011;6876;50.788;4.940;2023-08-07T04:38:56;6.30;;;2.80;;
13609;SDS011;6876;50.788;4.940;2023-08-07T04:41:43;6.67;;;2.63;;
13609;SDS011;6876;50.788;4.940;2023-08-07T04:44:32;5.33;;;2.83;;
13609;SDS011;6876;50.788;4.940;2023-08-07T04:47:19;5.83;;;2.60;;
13609;SDS011;6876;50.788;4.940;2023-08-07T04:50:07;8.37;;;2.97;;
13609;SDS011;6876;50.788;4.940;2023-08-07T04:52:55;8.47;;;2.80;;
13609;SDS011;6876;50.788;4.940;2023-08-07T04:55:42;5.73;;;2.90;;
13609;SDS011;6876;50.788;4.940;2023-08-07T04:58:30;6.33;;;2.93;;
13609;SDS011;6876;50.788;4.940;2023-08-07T05:01:19;7.40;;;2.40;;
13609;SDS011;6876;50.788;4.940;2023-08-07T05:04:06;4.67;;;2.30;;
13609;SDS011;6876;50.788;4.940;2023-08-07T05:06:54;6.57;;;2.23;;
13609;SDS011;6876;50.788;4.940;2023-08-07T05:09:41;4.90;;;2.33;;
13609;SDS011;6876;50.788;4.940;2023-08-07T05:12:29;6.17;;;2.33;;
13609;SDS011;6876;50.788;4.940;2023-08-07T05:15:16;4.97;;;2.20;;
13609;SDS011;6876;50.788;4.940;2023-08-07T05:18:05;6.33;;;2.13;;
13609;SDS011;6876;50.788;4.940;2023-08-07T05:20:52;8.13;;;2.50;;
13609;SDS011;6876;50.788;4.940;2023-08-07T05:23:39;4.43;;;2.10;;
13609;SDS011;6876;50.788;4.940;2023-08-07T05:26:27;4.20;;;2.13;;
13609;SDS011;6876;50.788;4.940;2023-08-07T05:29:15;6.67;;;2.90;;
13609;SDS011;6876;50.788;4.940;2023-08-07T05:32:02;7.73;;;2.40;;
13609;SDS011;6876;50.788;4.940;2023-08-07T05:34:53;7.93;;;2.80;;
13609;SDS011;6876;50.788;4.940;2023-08-07T05:37:40;6.83;;;2.00;;
13609;SDS011;6876;50.788;4.940;2023-08-07T05:40:27;7.23;;;2.50;;
13609;SDS011;6876;50.788;4.940;2023-08-07T05:43:16;5.70;;;2.63;;
13609;SDS011;6876;50.788;4.940;2023-08-07T05:46:03;4.77;;;2.53;;
13609;SDS011;6876;50.788;4.940;2023-08-07T05:48:50;5.70;;;2.43;;
13609;SDS011;6876;50.788;4.940;2023-08-07T05:51:39;4.60;;;2.20;;
13609;SDS011;6876;50.788;4.940;2023-08-07T05:54:26;5.83;;;2.07;;
13609;SDS011;6876;50.788;4.940;2023-08-07T05:57:14;6.03;;;1.80;;
13609;SDS011;6876;50.788;4.940;2023-08-07T06:00:01;3.87;;;1.87;;
13609;SDS011;6876;50.788;4.940;2023-08-07T06:02:49;4.30;;;1.80;;
13609;SDS011;6876;50.788;4.940;2023-08-07T06:05:36;4.03;;;1.90;;
13609;SDS011;6876;50.788;4.940;2023-08-07T06:08:25;4.55;;;2.20;;
13609;SDS011;6876;50.788;4.940;2023-08-07T06:11:12;5.47;;;2.00;;
13609;SDS011;6876;50.788;4.940;2023-08-07T06:13:59;5.35;;;1.88;;
13609;SDS011;6876;50.788;4.940;2023-08-07T06:16:47;3.22;;;1.90;;
13609;SDS011;6876;50.788;4.940;2023-08-07T06:19:34;4.10;;;2.15;;
13609;SDS011;6876;50.788;4.940;2023-08-07T06:22:22;4.70;;;1.90;;
13609;SDS011;6876;50.788;4.940;2023-08-07T06:25:10;4.60;;;1.70;;
13609;SDS011;6876;50.788;4.940;2023-08-07T06:27:58;6.40;;;2.28;;
13609;SDS011;6876;50.788;4.940;2023-08-07T06:30:45;5.00;;;1.90;;
13609;SDS011;6876;50.788;4.940;2023-08-07T06:33:32;5.35;;;1.98;;
13609;SDS011;6876;50.788;4.940;2023-08-07T06:36:20;5.28;;;2.10;;
13609;SDS011;6876;50.788;4.940;2023-08-07T06:39:07;5.20;;;2.10;;
13609;SDS011;6876;50.788;4.940;2023-08-07T06:41:56;3.92;;;1.95;;
13609;SDS011;6876;50.788;4.940;2023-08-07T06:44:46;6.20;;;2.10;;
13609;SDS011;6876;50.788;4.940;2023-08-07T06:47:33;3.67;;;1.70;;
13609;SDS011;6876;50.788;4.940;2023-08-07T06:50:20;7.13;;;2.00;;
13609;SDS011;6876;50.788;4.940;2023-08-07T06:53:08;4.85;;;2.17;;
13609;SDS011;6876;50.788;4.940;2023-08-07T06:55:55;6.93;;;1.70;;
13609;SDS011;6876;50.788;4.940;2023-08-07T06:58:44;3.90;;;2.10;;
13609;SDS011;6876;50.788;4.940;2023-08-07T07:01:31;4.80;;;2.03;;
13609;SDS011;6876;50.788;4.940;2023-08-07T07:04:18;4.18;;;2.17;;
13609;SDS011;6876;50.788;4.940;2023-08-07T07:07:06;3.10;;;2.00;;
13609;SDS011;6876;50.788;4.940;2023-08-07T07:09:53;3.38;;;2.08;;
13609;SDS011;6876;50.788;4.940;2023-08-07T07:12:40;4.18;;;2.10;;
13609;SDS011;6876;50.788;4.940;2023-08-07T07:15:29;5.18;;;2.28;;
13609;SDS011;6876;50.788;4.940;2023-08-07T07:18:16;7.53;;;2.13;;
13609;SDS011;6876;50.788;4.940;2023-08-07T07:21:05;5.80;;;2.20;;
13609;SDS011;6876;50.788;4.940;2023-08-07T07:23:52;5.63;;;2.25;;
13609;SDS011;6876;50.788;4.940;2023-08-07T07:26:39;4.70;;;1.83;;
13609;SDS011;6876;50.788;4.940;2023-08-07T07:29:27;4.93;;;2.08;;
13609;SDS011;6876;50.788;4.940;2023-08-07T07:32:15;4.90;;;1.92;;
13609;SDS011;6876;50.788;4.940;2023-08-07T07:35:03;4.22;;;2.10;;
13609;SDS011;6876;50.788;4.940;2023-08-07T07:37:51;4.32;;;2.05;;
13609;SDS011;6876;50.788;4.940;2023-08-07T07:40:38;3.75;;;2.00;;
13609;SDS011;6876;50.788;4.940;2023-08-07T07:43:25;3.78;;;2.28;;
13609;SDS011;6876;50.788;4.940;2023-08-07T07:46:13;5.32;;;2.30;;
13609;SDS011;6876;50.788;4.940;2023-08-07T07:49:01;4.28;;;2.00;;
13609;SDS011;6876;50.788;4.940;2023-08-07T07:51:50;4.50;;;2.40;;
13609;SDS011;6876;50.788;4.940;2023-08-07T07:54:37;3.92;;;2.20;;
13609;SDS011;6876;50.788;4.940;2023-08-07T07:57:25;3.08;;;2.13;;
13609;SDS011;6876;50.788;4.940;2023-08-07T08:00:13;6.60;;;2.17;;
13609;SDS011;6876;50.788;4.940;2023-08-07T08:03:01;3.25;;;1.80;;
13609;SDS011;6876;50.788;4.940;2023-08-07T08:05:50;5.65;;;1.92;;
13609;SDS011;6876;50.788;4.940;2023-08-07T08:08:38;3.17;;;1.92;;
13609;SDS011;6876;50.788;4.940;2023-08-07T08:11:27;5.35;;;1.83;;
13609;SDS011;6876;50.788;4.940;2023-08-07T08:14:15;7.82;;;2.30;;
13609;SDS011;6876;50.788;4.940;2023-08-07T08:17:03;3.55;;;1.85;;
13609;SDS011;6876;50.788;4.940;2023-08-07T08:19:50;5.00;;;1.95;;
13609;SDS011;6876;50.788;4.940;2023-08-07T08:22:39;4.78;;;2.10;;
13609;SDS011;6876;50.788;4.940;2023-08-07T08:25:26;5.57;;;2.10;;
13609;SDS011;6876;50.788;4.940;2023-08-07T08:28:14;3.88;;;1.80;;
13609;SDS011;6876;50.788;4.940;2023-08-07T08:31:01;3.83;;;2.17;;
13609;SDS011;6876;50.788;4.940;2023-08-07T08:33:48;4.38;;;2.42;;
13609;SDS011;6876;50.788;4.940;2023-08-07T08:36:36;6.47;;;2.00;;
13609;SDS011;6876;50.788;4.940;2023-08-07T08:39:24;5.13;;;2.17;;
13609;SDS011;6876;50.788;4.940;2023-08-07T08:42:12;5.70;;;2.22;;
13609;SDS011;6876;50.788;4.940;2023-08-07T08:44:59;4.30;;;2.03;;
13609;SDS011;6876;50.788;4.940;2023-08-07T08:47:49;3.95;;;2.00;;
13609;SDS011;6876;50.788;4.940;2023-08-07T08:50:41;4.38;;;2.20;;
13609;SDS011;6876;50.788;4.940;2023-08-07T08:53:29;5.45;;;2.13;;
13609;SDS011;6876;50.788;4.940;2023-08-07T08:56:18;4.53;;;1.98;;
13609;SDS011;6876;50.788;4.940;2023-08-07T08:59:07;3.45;;;1.77;;
13609;SDS011;6876;50.788;4.940;2023-08-07T09:01:55;4.22;;;2.15;;
13609;SDS011;6876;50.788;4.940;2023-08-07T09:04:43;5.13;;;2.15;;
13609;SDS011;6876;50.788;4.940;2023-08-07T09:07:31;6.07;;;2.00;;
13609;SDS011;6876;50.788;4.940;2023-08-07T09:10:19;5.13;;;2.05;;
13609;SDS011;6876;50.788;4.940;2023-08-07T09:13:09;4.30;;;1.92;;
13609;SDS011;6876;50.788;4.940;2023-08-07T09:16:00;2.80;;;2.05;;
13609;SDS011;6876;50.788;4.940;2023-08-07T09:18:49;4.50;;;2.30;;
13609;SDS011;6876;50.788;4.940;2023-08-07T09:21:37;3.78;;;2.10;;
13609;SDS011;6876;50.788;4.940;2023-08-07T09:24:24;4.75;;;2.15;;
13609;SDS011;6876;50.788;4.940;2023-08-07T09:27:12;5.22;;;2.08;;
13609;SDS011;6876;50.788;4.940;2023-08-07T09:30:01;3.45;;;1.90;;
13609;SDS011;6876;50.788;4.940;2023-08-07T09:32:49;6.25;;;2.10;;
13609;SDS011;6876;50.788;4.940;2023-08-07T09:35:36;2.88;;;1.90;;
13609;SDS011;6876;50.788;4.940;2023-08-07T09:38:24;4.72;;;2.05;;
13609;SDS011;6876;50.788;4.940;2023-08-07T09:41:15;4.78;;;1.90;;
13609;SDS011;6876;50.788;4.940;2023-08-07T09:44:06;4.90;;;1.90;;
13609;SDS011;6876;50.788;4.940;2023-08-07T09:46:55;3.15;;;1.63;;
13609;SDS011;6876;50.788;4.940;2023-08-07T09:49:43;5.50;;;1.90;;
13609;SDS011;6876;50.788;4.940;2023-08-07T09:52:31;3.40;;;1.80;;
13609;SDS011;6876;50.788;4.940;2023-08-07T09:55:18;3.63;;;1.60;;
13609;SDS011;6876;50.788;4.940;2023-08-07T09:58:07;4.95;;;1.83;;
13609;SDS011;6876;50.788;4.940;2023-08-07T10:00:58;3.13;;;1.80;;
13609;SDS011;6876;50.788;4.940;2023-08-07T10:03:48;3.53;;;1.80;;
13609;SDS011;6876;50.788;4.940;2023-08-07T10:06:36;3.78;;;1.65;;
13609;SDS011;6876;50.788;4.940;2023-08-07T10:09:23;3.85;;;1.70;;
13609;SDS011;6876;50.788;4.940;2023-08-07T10:12:11;3.22;;;1.60;;
13609;SDS011;6876;50.788;4.940;2023-08-07T10:14:59;3.60;;;1.67;;
13609;SDS011;6876;50.788;4.940;2023-08-07T10:17:46;4.10;;;1.70;;
13609;SDS011;6876;50.788;4.940;2023-08-07T10:20:35;2.33;;;1.70;;
13609;SDS011;6876;50.788;4.940;2023-08-07T10:23:27;3.03;;;1.65;;
13609;SDS011;6876;50.788;4.940;2023-08-07T10:26:14;2.30;;;1.73;;
13609;SDS011;6876;50.788;4.940;2023-08-07T10:29:02;2.47;;;1.45;;
13609;SDS011;6876;50.788;4.940;2023-08-07T10:31:53;3.50;;;1.67;;
13609;SDS011;6876;50.788;4.940;2023-08-07T10:34:46;3.55;;;1.80;;
13609;SDS011;6876;50.788;4.940;2023-08-07T10:37:43;1.85;;;1.50;;
13609;SDS011;6876;50.788;4.940;2023-08-07T10:40:31;2.17;;;1.50;;
13609;SDS011;6876;50.788;4.940;2023-08-07T10:43:23;4.32;;;2.03;;
13609;SDS011;6876;50.788;4.940;2023-08-07T10:46:14;5.07;;;1.73;;
13609;SDS011;6876;50.788;4.940;2023-08-07T10:49:02;3.22;;;1.50;;
13609;SDS011;6876;50.788;4.940;2023-08-07T10:51:50;5.22;;;1.50;;
13609;SDS011;6876;50.788;4.940;2023-08-07T10:54:40;3.97;;;1.50;;
13609;SDS011;6876;50.788;4.940;2023-08-07T10:57:32;2.13;;;1.52;;
13609;SDS011;6876;50.788;4.940;2023-08-07T11:00:21;4.38;;;1.60;;
13609;SDS011;6876;50.788;4.940;2023-08-07T11:03:14;3.35;;;1.58;;
13609;SDS011;6876;50.788;4.940;2023-08-07T11:06:08;2.70;;;1.63;;
13609;SDS011;6876;50.788;4.940;2023-08-07T11:08:56;2.47;;;1.40;;
13609;SDS011;6876;50.788;4.940;2023-08-07T11:11:45;2.35;;;1.40;;
13609;SDS011;6876;50.788;4.940;2023-08-07T11:14:34;7.60;;;1.80;;
13609;SDS011;6876;50.788;4.940;2023-08-07T11:17:21;3.67;;;1.73;;
13609;SDS011;6876;50.788;4.940;2023-08-07T11:20:11;3.63;;;1.95;;
13609;SDS011;6876;50.788;4.940;2023-08-07T11:22:59;4.35;;;1.92;;
13609;SDS011;6876;50.788;4.940;2023-08-07T11:25:46;3.65;;;1.70;;
13609;SDS011;6876;50.788;4.940;2023-08-07T11:28:35;3.15;;;1.50;;
13609;SDS011;6876;50.788;4.940;2023-08-07T11:31:23;1.50;;;1.40;;
13609;SDS011;6876;50.788;4.940;2023-08-07T11:34:11;3.50;;;1.40;;
13609;SDS011;6876;50.788;4.940;2023-08-07T11:36:58;1.80;;;1.40;;
13609;SDS011;6876;50.788;4.940;2023-08-07T11:39:46;3.42;;;1.75;;
13609;SDS011;6876;50.788;4.940;2023-08-07T11:42:33;4.90;;;1.80;;
13609;SDS011;6876;50.788;4.940;2023-08-07T11:45:22;1.63;;;1.52;;
13609;SDS011;6876;50.788;4.940;2023-08-07T11:48:09;3.05;;;1.52;;
13609;SDS011;6876;50.788;4.940;2023-08-07T11:50:57;1.85;;;1.35;;
13609;SDS011;6876;50.788;4.940;2023-08-07T11:53:45;2.75;;;1.40;;
13609;SDS011;6876;50.788;4.940;2023-08-07T11:56:32;2.25;;;1.45;;
13609;SDS011;6876;50.788;4.940;2023-08-07T11:59:20;19.25;;;1.95;;
13609;SDS011;6876;50.788;4.940;2023-08-07T12:02:10;1.40;;;1.30;;
13609;SDS011;6876;50.788;4.940;2023-08-07T12:04:58;3.55;;;1.33;;
13609;SDS011;6876;50.788;4.940;2023-08-07T12:07:46;1.63;;;1.30;;
13609;SDS011;6876;50.788;4.940;2023-08-07T12:10:34;2.38;;;1.60;;
13609;SDS011;6876;50.788;4.940;2023-08-07T12:13:23;2.05;;;1.40;;
13609;SDS011;6876;50.788;4.940;2023-08-07T12:16:13;3.40;;;1.50;;
13609;SDS011;6876;50.788;4.940;2023-08-07T12:19:03;1.85;;;1.30;;
13609;SDS011;6876;50.788;4.940;2023-08-07T12:21:50;1.58;;;1.20;;
13609;SDS011;6876;50.788;4.940;2023-08-07T12:24:38;3.95;;;1.50;;
13609;SDS011;6876;50.788;4.940;2023-08-07T12:27:27;1.40;;;1.30;;
13609;SDS011;6876;50.788;4.940;2023-08-07T12:30:14;1.70;;;1.25;;
13609;SDS011;6876;50.788;4.940;2023-08-07T12:33:02;3.17;;;1.60;;
13609;SDS011;6876;50.788;4.940;2023-08-07T12:35:52;1.95;;;1.42;;
13609;SDS011;6876;50.788;4.940;2023-08-07T12:38:40;2.15;;;1.50;;
13609;SDS011;6876;50.788;4.940;2023-08-07T12:41:27;14.45;;;2.05;;
13609;SDS011;6876;50.788;4.940;2023-08-07T12:44:14;1.98;;;1.38;;
13609;SDS011;6876;50.788;4.940;2023-08-07T12:47:01;3.00;;;1.50;;
13609;SDS011;6876;50.788;4.940;2023-08-07T12:49:49;1.80;;;1.40;;
13609;SDS011;6876;50.788;4.940;2023-08-07T12:52:38;1.85;;;1.25;;
13609;SDS011;6876;50.788;4.940;2023-08-07T12:55:25;2.85;;;1.58;;
13609;SDS011;6876;50.788;4.940;2023-08-07T12:58:14;2.53;;;1.25;;
13609;SDS011;6876;50.788;4.940;2023-08-07T13:01:04;1.30;;;1.20;;
13609;SDS011;6876;50.788;4.940;2023-08-07T13:03:51;2.00;;;1.40;;
13609;SDS011;6876;50.788;4.940;2023-08-07T13:06:38;1.92;;;1.20;;
13609;SDS011;6876;50.788;4.940;2023-08-07T13:09:27;3.47;;;1.33;;
13609;SDS011;6876;50.788;4.940;2023-08-07T13:12:16;3.33;;;1.50;;
13609;SDS011;6876;50.788;4.940;2023-08-07T13:15:04;2.20;;;1.40;;
13609;SDS011;6876;50.788;4.940;2023-08-07T13:17:53;2.17;;;1.20;;
13609;SDS011;6876;50.788;4.940;2023-08-07T13:20:40;2.17;;;1.50;;
13609;SDS011;6876;50.788;4.940;2023-08-07T13:23:28;4.20;;;1.75;;
13609;SDS011;6876;50.788;4.940;2023-08-07T13:26:16;2.30;;;1.20;;
13609;SDS011;6876;50.788;4.940;2023-08-07T13:29:04;1.50;;;1.40;;
13609;SDS011;6876;50.788;4.940;2023-08-07T13:31:51;1.35;;;1.23;;
13609;SDS011;6876;50.788;4.940;2023-08-07T13:34:38;2.97;;;1.58;;
13609;SDS011;6876;50.788;4.940;2023-08-07T13:37:26;2.45;;;1.20;;
13609;SDS011;6876;50.788;4.940;2023-08-07T13:40:13;2.58;;;1.50;;
13609;SDS011;6876;50.788;4.940;2023-08-07T13:43:02;1.88;;;1.17;;
13609;SDS011;6876;50.788;4.940;2023-08-07T13:45:54;1.45;;;1.35;;
13609;SDS011;6876;50.788;4.940;2023-08-07T13:48:41;2.10;;;1.30;;
13609;SDS011;6876;50.788;4.940;2023-08-07T13:51:28;1.70;;;1.42;;
13609;SDS011;6876;50.788;4.940;2023-08-07T13:54:16;3.30;;;1.52;;
13609;SDS011;6876;50.788;4.940;2023-08-07T13:57:04;3.90;;;2.50;;
13609;SDS011;6876;50.788;4.940;2023-08-07T13:59:53;1.70;;;1.60;;
13609;SDS011;6876;50.788;4.940;2023-08-07T14:02:40;1.48;;;1.38;;
13609;SDS011;6876;50.788;4.940;2023-08-07T14:05:28;1.92;;;1.27;;
13609;SDS011;6876;50.788;4.940;2023-08-07T14:08:15;1.52;;;1.42;;
13609;SDS011;6876;50.788;4.940;2023-08-07T14:11:02;1.13;;;1.02;;
13609;SDS011;6876;50.788;4.940;2023-08-07T14:13:50;2.45;;;1.23;;
13609;SDS011;6876;50.788;4.940;2023-08-07T14:16:39;1.27;;;1.10;;
13609;SDS011;6876;50.788;4.940;2023-08-07T14:19:26;4.03;;;1.23;;
13609;SDS011;6876;50.788;4.940;2023-08-07T14:22:13;1.88;;;1.35;;
13609;SDS011;6876;50.788;4.940;2023-08-07T14:25:01;2.78;;;1.20;;
13609;SDS011;6876;50.788;4.940;2023-08-07T14:27:48;1.73;;;1.20;;
13609;SDS011;6876;50.788;4.940;2023-08-07T14:30:36;1.38;;;1.13;;
13609;SDS011;6876;50.788;4.940;2023-08-07T14:33:24;2.30;;;1.10;;
13609;SDS011;6876;50.788;4.940;2023-08-07T14:36:12;2.17;;;1.17;;
13609;SDS011;6876;50.788;4.940;2023-08-07T14:39:00;1.08;;;0.98;;
13609;SDS011;6876;50.788;4.940;2023-08-07T14:41:48;2.78;;;1.17;;
13609;SDS011;6876;50.788;4.940;2023-08-07T14:44:37;1.90;;;1.02;;
13609;SDS011;6876;50.788;4.940;2023-08-07T14:47:24;1.80;;;1.00;;
13609;SDS011;6876;50.788;4.940;2023-08-07T14:50:13;1.88;;;1.00;;
13609;SDS011;6876;50.788;4.940;2023-08-07T14:53:02;1.40;;;0.95;;
13609;SDS011;6876;50.788;4.940;2023-08-07T14:55:49;1.52;;;1.02;;
13609;SDS011;6876;50.788;4.940;2023-08-07T14:58:36;1.20;;;0.70;;
13609;SDS011;6876;50.788;4.940;2023-08-07T15:01:24;3.47;;;1.17;;
13609;SDS011;6876;50.788;4.940;2023-08-07T15:04:11;1.20;;;1.00;;
13609;SDS011;6876;50.788;4.940;2023-08-07T15:07:01;1.45;;;0.80;;
13609;SDS011;6876;50.788;4.940;2023-08-07T15:09:49;1.05;;;0.90;;
13609;SDS011;6876;50.788;4.940;2023-08-07T15:12:36;2.13;;;1.08;;
13609;SDS011;6876;50.788;4.940;2023-08-07T15:15:23;0.80;;;0.70;;
13609;SDS011;6876;50.788;4.940;2023-08-07T15:18:11;2.35;;;0.80;;
13609;SDS011;6876;50.788;4.940;2023-08-07T15:20:58;1.13;;;0.85;;
13609;SDS011;6876;50.788;4.940;2023-08-07T15:23:48;1.05;;;0.90;;
13609;SDS011;6876;50.788;4.940;2023-08-07T15:26:36;1.58;;;0.88;;
13609;SDS011;6876;50.788;4.940;2023-08-07T15:29:23;1.60;;;1.00;;
13609;SDS011;6876;50.788;4.940;2023-08-07T15:32:10;1.27;;;0.70;;
13609;SDS011;6876;50.788;4.940;2023-08-07T15:34:59;1.80;;;0.73;;
13609;SDS011;6876;50.788;4.940;2023-08-07T15:37:46;1.65;;;0.80;;
13609;SDS011;6876;50.788;4.940;2023-08-07T15:40:35;2.47;;;1.05;;
13609;SDS011;6876;50.788;4.940;2023-08-07T15:43:23;2.60;;;0.90;;
13609;SDS011;6876;50.788;4.940;2023-08-07T15:46:11;2.28;;;0.80;;
13609;SDS011;6876;50.788;4.940;2023-08-07T15:48:58;2.10;;;0.73;;
13609;SDS011;6876;50.788;4.940;2023-08-07T15:51:45;3.03;;;0.90;;
13609;SDS011;6876;50.788;4.940;2023-08-07T15:54:33;3.28;;;0.75;;
13609;SDS011;6876;50.788;4.940;2023-08-07T15:57:21;2.58;;;0.90;;
13609;SDS011;6876;50.788;4.940;2023-08-07T16:00:10;0.98;;;0.80;;
13609;SDS011;6876;50.788;4.940;2023-08-07T16:03:00;1.23;;;0.80;;
13609;SDS011;6876;50.788;4.940;2023-08-07T16:05:48;2.15;;;0.90;;
13609;SDS011;6876;50.788;4.940;2023-08-07T16:08:35;1.92;;;0.70;;
13609;SDS011;6876;50.788;4.940;2023-08-07T16:11:23;1.15;;;0.70;;
13609;SDS011;6876;50.788;4.940;2023-08-07T16:14:11;1.17;;;0.80;;
13609;SDS011;6876;50.788;4.940;2023-08-07T16:16:59;2.63;;;1.00;;
13609;SDS011;6876;50.788;4.940;2023-08-07T16:19:47;1.50;;;0.70;;
13609;SDS011;6876;50.788;4.940;2023-08-07T16:22:34;1.25;;;0.80;;
13609;SDS011;6876;50.788;4.940;2023-08-07T16:25:22;2.25;;;0.90;;
13609;SDS011;6876;50.788;4.940;2023-08-07T16:28:09;1.50;;;0.80;;
13609;SDS011;6876;50.788;4.940;2023-08-07T16:30:58;1.50;;;0.85;;
13609;SDS011;6876;50.788;4.940;2023-08-07T16:33:45;1.73;;;0.90;;
13609;SDS011;6876;50.788;4.940;2023-08-07T16:36:32;2.03;;;0.80;;
13609;SDS011;6876;50.788;4.940;2023-08-07T16:39:20;2.95;;;0.73;;
13609;SDS011;6876;50.788;4.940;2023-08-07T16:42:07;0.90;;;0.80;;
13609;SDS011;6876;50.788;4.940;2023-08-07T16:44:54;1.10;;;0.70;;
13609;SDS011;6876;50.788;4.940;2023-08-07T16:47:43;1.95;;;1.13;;
13609;SDS011;6876;50.788;4.940;2023-08-07T16:50:31;4.53;;;0.70;;
13609;SDS011;6876;50.788;4.940;2023-08-07T16:53:18;1.17;;;0.60;;
13609;SDS011;6876;50.788;4.940;2023-08-07T16:56:06;2.80;;;0.90;;
13609;SDS011;6876;50.788;4.940;2023-08-07T16:58:53;1.55;;;0.80;;
13609;SDS011;6876;50.788;4.940;2023-08-07T17:01:40;1.98;;;0.90;;
13609;SDS011;6876;50.788;4.940;2023-08-07T17:04:29;1.38;;;0.88;;
13609;SDS011;6876;50.788;4.940;2023-08-07T17:07:17;1.30;;;0.80;;